createdAt,value
2022-11-27T00:01:58.374Z,6.10
2022-11-27T00:06:51.996Z,6.20
2022-11-27T00:14:14.789Z,6.10
2022-11-27T00:21:36.817Z,6.10
2022-11-27T00:24:05.394Z,6.10
2022-11-27T00:26:37.566Z,6.10
2022-11-27T00:29:05.142Z,6.10
2022-11-27T00:31:32.976Z,6.00
2022-11-27T00:34:03.784Z,6.00
2022-11-27T00:36:32.449Z,6.00
2022-11-27T00:38:59.328Z,5.90
2022-11-27T00:41:28.193Z,6.00
2022-11-27T00:46:28.798Z,5.90
2022-11-27T00:51:24.048Z,5.90
2022-11-27T00:53:50.985Z,5.90
2022-11-27T00:56:20.613Z,5.90
2022-11-27T00:58:47.843Z,5.90
2022-11-27T01:01:21.479Z,5.80
2022-11-27T01:03:48.571Z,5.90
2022-11-27T01:06:17.081Z,5.80
2022-11-27T01:08:44.154Z,5.60
2022-11-27T01:11:15.872Z,5.80
2022-11-27T01:16:16.357Z,5.70
2022-11-27T01:18:44.762Z,5.70
2022-11-27T01:21:15.360Z,5.70
2022-11-27T01:26:10.469Z,5.70
2022-11-27T01:28:39.641Z,5.60
2022-11-27T01:31:08.771Z,5.60
2022-11-27T01:33:35.588Z,5.70
2022-11-27T01:36:05.413Z,5.60
2022-11-27T01:38:32.632Z,5.60
2022-11-27T01:41:27.999Z,5.60
2022-11-27T01:44:00.782Z,5.50
2022-11-27T01:46:42.311Z,5.50
2022-11-27T01:51:44.836Z,5.40
2022-11-27T01:54:12.120Z,5.40
2022-11-27T01:56:41.257Z,5.40
2022-11-27T01:59:08.301Z,5.40
2022-11-27T02:01:34.986Z,5.40
2022-11-27T02:06:29.243Z,5.40
2022-11-27T02:08:56.713Z,5.50
2022-11-27T02:11:26.047Z,5.40
2022-11-27T02:14:01.304Z,5.40
2022-11-27T02:16:39.904Z,5.40
2022-11-27T02:19:25.223Z,5.40
2022-11-27T02:22:00.377Z,5.40
2022-11-27T02:24:50.915Z,5.30
2022-11-27T02:27:45.123Z,5.40
2022-11-27T02:32:48.541Z,5.30
2022-11-27T02:35:23.090Z,5.30
2022-11-27T02:37:59.779Z,5.40
2022-11-27T02:43:11.716Z,5.30
2022-11-27T02:45:42.585Z,5.30
2022-11-27T02:48:12.100Z,5.30
2022-11-27T02:50:41.774Z,5.20
2022-11-27T02:53:13.593Z,5.20
2022-11-27T02:55:42.373Z,5.10
2022-11-27T02:58:14.057Z,5.10
2022-11-27T03:00:43.345Z,5.10
2022-11-27T03:03:13.092Z,5.00
2022-11-27T03:05:46.062Z,5.00
2022-11-27T03:08:42.325Z,4.90
2022-11-27T03:11:11.529Z,4.90
2022-11-27T03:13:45.476Z,4.80
2022-11-27T03:16:27.046Z,4.70
2022-11-27T03:19:18.195Z,4.80
2022-11-27T03:21:52.752Z,4.80
2022-11-27T03:24:19.654Z,4.80
2022-11-27T03:29:18.983Z,4.80
2022-11-27T03:41:42.367Z,4.90
2022-11-27T03:47:00.733Z,4.90
2022-11-27T03:49:46.220Z,4.90
2022-11-27T03:52:40.905Z,7.30
2022-11-27T03:55:25.283Z,4.90
2022-11-27T03:58:09.367Z,4.90
2022-11-27T04:00:40.415Z,4.80
2022-11-27T04:03:10.829Z,4.90
2022-11-27T04:08:04.839Z,4.70
2022-11-27T04:15:25.436Z,4.60
2022-11-27T04:17:52.010Z,4.60
2022-11-27T04:22:45.715Z,4.60
2022-11-27T04:39:54.816Z,4.50
2022-11-27T04:49:42.845Z,4.10
2022-11-27T04:52:10.914Z,4.40
2022-11-27T04:57:05.024Z,4.40
2022-11-27T04:59:32.002Z,4.50
2022-11-27T05:01:58.680Z,4.30
2022-11-27T05:09:19.915Z,4.30
2022-11-27T05:16:47.433Z,4.30
2022-11-27T05:19:15.322Z,4.70
2022-11-27T05:21:42.948Z,4.30
2022-11-27T05:24:10.053Z,4.10
2022-11-27T05:26:37.597Z,4.20
2022-11-27T05:46:17.172Z,4.20
2022-11-27T05:56:10.665Z,4.30
2022-11-27T05:58:38.547Z,4.20
2022-11-27T06:01:06.113Z,4.10
2022-11-27T06:06:09.294Z,4.20
2022-11-27T06:08:40.277Z,4.20
2022-11-27T06:11:12.750Z,4.20
2022-11-27T06:16:13.154Z,4.20
2022-11-27T06:21:09.268Z,4.20
2022-11-27T06:23:36.621Z,4.20
2022-11-27T06:26:30.334Z,4.00
2022-11-27T06:28:58.940Z,4.10
2022-11-27T06:31:30.940Z,4.10
2022-11-27T06:33:58.661Z,4.10
2022-11-27T06:36:29.933Z,4.10
2022-11-27T06:41:24.841Z,4.20
2022-11-27T06:43:51.890Z,4.20
2022-11-27T06:46:20.733Z,4.20
2022-11-27T06:48:49.246Z,4.20
2022-11-27T06:51:24.282Z,4.10
2022-11-27T06:53:51.713Z,4.20
2022-11-27T06:56:21.212Z,4.30
2022-11-27T06:58:54.753Z,4.30
2022-11-27T07:01:23.098Z,4.30
2022-11-27T07:06:21.061Z,4.30
2022-11-27T07:11:23.108Z,4.20
2022-11-27T07:13:51.028Z,4.30
2022-11-27T07:16:19.044Z,4.30
2022-11-27T07:18:48.801Z,4.30
2022-11-27T07:21:15.957Z,3.80
2022-11-27T07:23:44.074Z,4.40
2022-11-27T07:26:21.433Z,4.40
2022-11-27T07:31:21.258Z,4.40
2022-11-27T07:36:21.772Z,4.40
2022-11-27T07:41:16.144Z,4.40
2022-11-27T07:43:44.375Z,4.60
2022-11-27T07:46:16.510Z,4.60
2022-11-27T07:48:43.645Z,4.60
2022-11-27T07:51:12.069Z,4.60
2022-11-27T07:53:40.486Z,4.60
2022-11-27T07:56:09.792Z,4.60
2022-11-27T07:58:36.744Z,4.60
2022-11-27T08:01:08.560Z,4.60
2022-11-27T08:06:02.779Z,4.50
2022-11-27T08:08:29.413Z,4.80
2022-11-27T08:15:50.237Z,4.90
2022-11-27T08:25:38.562Z,5.00
2022-11-27T08:28:05.183Z,4.80
2022-11-27T08:32:58.908Z,5.10
2022-11-27T08:37:52.883Z,5.20
2022-11-27T08:45:13.775Z,5.30
2022-11-27T08:50:08.199Z,5.50
2022-11-27T08:52:34.844Z,5.40
2022-11-27T08:55:01.428Z,5.60
2022-11-27T08:57:28.012Z,5.60
2022-11-27T09:04:48.771Z,5.60
2022-11-27T09:26:54.260Z,6.20
2022-11-27T09:31:48.215Z,6.30
2022-11-27T09:34:14.897Z,6.40
2022-11-27T09:41:46.274Z,6.40
2022-11-27T09:44:31.184Z,6.60
2022-11-27T09:47:01.202Z,6.70
2022-11-27T09:49:36.259Z,6.80
2022-11-27T09:52:22.403Z,6.90
2022-11-27T09:55:02.345Z,7.20
2022-11-27T09:57:36.216Z,7.20
2022-11-27T10:00:13.213Z,7.10
2022-11-27T10:02:41.701Z,7.10
2022-11-27T10:05:33.447Z,7.20
2022-11-27T10:08:23.942Z,7.30
2022-11-27T10:11:04.972Z,7.40
2022-11-27T10:13:54.319Z,7.40
2022-11-27T10:18:59.583Z,7.60
2022-11-27T10:24:20.024Z,7.80
2022-11-27T10:26:49.629Z,7.80
2022-11-27T10:29:45.737Z,7.90
2022-11-27T10:32:52.773Z,7.90
2022-11-27T10:35:16.055Z,8.00
2022-11-27T10:37:51.243Z,8.00
2022-11-27T10:40:24.511Z,8.10
2022-11-27T10:43:04.657Z,8.10
2022-11-27T10:46:03.835Z,8.20
2022-11-27T10:58:50.159Z,8.40
2022-11-27T11:01:19.896Z,8.50
2022-11-27T11:06:23.703Z,8.50
2022-11-27T11:09:14.265Z,8.60
2022-11-27T11:14:26.682Z,8.70
2022-11-27T11:16:54.748Z,8.80
2022-11-27T11:19:31.831Z,8.80
2022-11-27T11:22:14.546Z,8.80
2022-11-27T11:24:49.696Z,9.00
2022-11-27T11:27:21.367Z,9.00
2022-11-27T11:30:07.714Z,9.10
2022-11-27T11:32:39.557Z,9.10
2022-11-27T11:35:09.204Z,9.10
2022-11-27T11:37:41.801Z,9.20
2022-11-27T11:40:16.280Z,9.20
2022-11-27T11:43:09.962Z,9.30
2022-11-27T11:45:46.641Z,9.30
2022-11-27T11:48:31.134Z,9.30
2022-11-27T11:51:02.433Z,9.30
2022-11-27T11:53:40.919Z,9.20
2022-11-27T11:56:38.644Z,9.40
2022-11-27T11:59:17.091Z,9.50
2022-11-27T12:02:25.119Z,9.50
2022-11-27T12:05:32.786Z,9.50
2022-11-27T12:08:13.709Z,9.50
2022-11-27T12:11:18.982Z,9.60
2022-11-27T12:14:14.698Z,9.50
2022-11-27T12:17:21.281Z,9.60
2022-11-27T12:22:40.179Z,9.60
2022-11-27T12:25:15.651Z,9.70
2022-11-27T12:27:56.311Z,9.70
2022-11-27T12:30:42.996Z,9.70
2022-11-27T12:35:48.129Z,9.70
2022-11-27T12:38:28.683Z,9.70
2022-11-27T12:41:18.551Z,9.80
2022-11-27T12:43:55.732Z,9.80
2022-11-27T12:46:26.127Z,10.10
2022-11-27T12:49:00.424Z,9.80
2022-11-27T12:51:55.285Z,9.80
2022-11-27T12:54:35.010Z,9.80
2022-11-27T12:57:08.064Z,9.80
2022-11-27T12:59:48.604Z,9.80
2022-11-27T13:02:37.254Z,9.90
2022-11-27T13:05:26.811Z,9.90
2022-11-27T13:08:11.149Z,9.90
2022-11-27T13:10:47.229Z,9.90
2022-11-27T13:13:23.315Z,9.80
2022-11-27T13:15:58.159Z,10.00
2022-11-27T13:18:38.174Z,10.00
2022-11-27T13:21:11.111Z,9.90
2022-11-27T13:26:11.316Z,10.00
2022-11-27T13:28:46.168Z,10.00
2022-11-27T13:31:30.085Z,10.00
2022-11-27T13:34:05.845Z,10.00
2022-11-27T13:36:47.479Z,10.00
2022-11-27T13:39:41.741Z,9.90
2022-11-27T13:42:11.149Z,10.00
2022-11-27T13:44:43.459Z,9.90
2022-11-27T13:47:19.987Z,9.90
2022-11-27T13:50:02.273Z,9.90
2022-11-27T13:52:29.829Z,9.70
2022-11-27T13:57:24.942Z,9.80
2022-11-27T14:00:04.031Z,9.60
2022-11-27T14:02:44.339Z,9.70
2022-11-27T14:05:12.922Z,9.60
2022-11-27T14:07:42.769Z,9.70
2022-11-27T14:10:14.553Z,9.50
2022-11-27T14:12:41.873Z,9.70
2022-11-27T14:15:30.789Z,9.70
2022-11-27T14:18:17.393Z,9.70
2022-11-27T14:21:02.165Z,9.60
2022-11-27T14:23:36.547Z,9.60
2022-11-27T14:26:15.243Z,9.60
2022-11-27T14:28:50.244Z,9.60
2022-11-27T14:31:26.870Z,9.70
2022-11-27T14:39:07.670Z,9.60
2022-11-27T14:44:03.300Z,9.50
2022-11-27T14:46:33.539Z,9.30
2022-11-27T14:49:00.387Z,9.30
2022-11-27T14:51:32.823Z,9.30
2022-11-27T14:54:29.995Z,9.30
2022-11-27T14:56:58.101Z,9.20
2022-11-27T14:59:25.728Z,9.20
2022-11-27T15:02:06.241Z,9.20
2022-11-27T15:04:38.334Z,9.10
2022-11-27T15:07:27.940Z,9.10
2022-11-27T15:09:57.047Z,9.10
2022-11-27T15:12:30.575Z,9.10
2022-11-27T15:15:05.189Z,9.10
2022-11-27T15:17:34.485Z,9.10
2022-11-27T15:20:04.698Z,9.10
2022-11-27T15:22:33.475Z,9.10
2022-11-27T15:25:07.458Z,9.10
2022-11-27T15:27:46.477Z,9.00
2022-11-27T15:30:17.705Z,9.10
2022-11-27T15:32:51.472Z,9.00
2022-11-27T15:35:27.447Z,9.00
2022-11-27T15:37:57.272Z,9.00
2022-11-27T15:40:31.845Z,9.00
2022-11-27T15:45:31.388Z,9.00
2022-11-27T15:48:00.259Z,8.90
2022-11-27T15:50:28.106Z,8.90
2022-11-27T15:55:22.377Z,8.90
2022-11-27T16:02:43.560Z,9.00
2022-11-27T16:05:10.396Z,8.70
2022-11-27T16:07:37.126Z,8.80
2022-11-27T16:10:04.518Z,8.70
2022-11-27T16:14:58.379Z,8.80
2022-11-27T16:32:07.519Z,8.90
2022-11-27T16:34:34.174Z,8.90
2022-11-27T16:37:00.808Z,8.90
2022-11-27T16:39:27.489Z,8.80
2022-11-27T16:54:12.521Z,8.80
2022-11-27T16:59:11.616Z,8.80
2022-11-27T17:01:40.840Z,8.80
2022-11-27T17:04:09.110Z,8.90
2022-11-27T17:06:37.447Z,8.90
2022-11-27T17:09:06.545Z,8.90
2022-11-27T17:11:35.814Z,8.80
2022-11-27T17:14:05.771Z,8.90
2022-11-27T17:16:32.980Z,8.90
2022-11-27T17:21:32.213Z,8.70
2022-11-27T17:24:01.789Z,8.50
2022-11-27T17:26:30.601Z,8.80
2022-11-27T17:31:32.624Z,8.90
2022-11-27T17:33:59.774Z,8.80
2022-11-27T17:36:28.004Z,8.90
2022-11-27T17:41:23.041Z,8.80
2022-11-27T17:43:53.896Z,8.80
2022-11-27T17:46:23.402Z,8.80
2022-11-27T17:48:51.037Z,8.90
2022-11-27T17:56:14.407Z,8.80
2022-11-27T17:58:41.374Z,8.80
2022-11-27T18:01:22.276Z,8.70
2022-11-27T18:03:49.796Z,8.70
2022-11-27T18:06:18.405Z,8.70
2022-11-27T18:08:46.781Z,8.80
2022-11-27T18:11:25.555Z,8.70
2022-11-27T18:16:22.834Z,8.70
2022-11-27T18:18:50.337Z,8.70
2022-11-27T18:21:19.248Z,8.80
2022-11-27T18:24:20.768Z,8.80
2022-11-27T18:29:21.547Z,8.70
2022-11-27T18:31:49.291Z,8.80
2022-11-27T18:39:10.461Z,8.70
2022-11-27T18:49:00.479Z,8.80
2022-11-27T18:53:55.789Z,8.80
2022-11-27T18:56:24.807Z,8.80
2022-11-27T18:58:52.295Z,8.70
2022-11-27T19:01:24.329Z,8.80
2022-11-27T19:06:20.611Z,8.60
2022-11-27T19:11:17.961Z,8.80
2022-11-27T19:16:21.479Z,8.70
2022-11-27T19:18:48.627Z,8.60
2022-11-27T19:21:24.282Z,8.60
2022-11-27T19:23:52.436Z,8.60
2022-11-27T19:26:25.119Z,8.60
2022-11-27T19:28:53.920Z,8.70
2022-11-27T19:33:55.865Z,8.60
2022-11-27T19:36:23.518Z,8.60
2022-11-27T19:38:55.115Z,8.60
2022-11-27T19:41:22.220Z,8.60
2022-11-27T19:43:49.420Z,8.50
2022-11-27T19:46:28.263Z,8.60
2022-11-27T19:48:56.801Z,8.50
2022-11-27T19:51:25.160Z,8.50
2022-11-27T19:53:52.193Z,8.50
2022-11-27T19:58:46.505Z,8.50
2022-11-27T20:01:16.493Z,8.50
2022-11-27T20:03:43.930Z,8.40
2022-11-27T20:06:13.750Z,8.50
2022-11-27T20:08:41.366Z,8.50
2022-11-27T20:11:12.149Z,8.40
2022-11-27T20:16:10.463Z,8.50
2022-11-27T20:18:37.613Z,8.40
2022-11-27T20:21:11.605Z,8.50
2022-11-27T20:23:39.577Z,8.50
2022-11-27T20:26:08.034Z,8.40
2022-11-27T20:28:36.036Z,8.40
2022-11-27T20:31:04.132Z,8.40
2022-11-27T20:33:32.493Z,8.30
2022-11-27T20:36:00.369Z,8.30
2022-11-27T20:40:54.900Z,8.30
2022-11-27T20:43:21.487Z,8.30
2022-11-27T20:45:52.372Z,8.30
2022-11-27T20:48:19.080Z,8.20
2022-11-27T20:50:50.993Z,8.10
2022-11-27T20:53:18.436Z,8.10
2022-11-27T21:03:07.678Z,7.90
2022-11-27T21:08:01.497Z,7.90
2022-11-27T21:17:55.880Z,7.80
2022-11-27T21:22:49.815Z,7.80
2022-11-27T21:25:17.936Z,7.60
2022-11-27T21:27:46.041Z,7.80
2022-11-27T21:30:13.056Z,7.80
2022-11-27T21:35:07.051Z,7.70
2022-11-27T21:40:00.947Z,7.50
2022-11-27T21:47:23.222Z,7.50
2022-11-27T21:54:44.618Z,7.50
2022-11-27T21:57:11.360Z,7.40
2022-11-27T21:59:38.143Z,7.40
2022-11-27T22:04:31.948Z,7.20
2022-11-27T22:16:48.412Z,7.10
2022-11-27T22:19:15.606Z,7.10
2022-11-27T22:24:15.085Z,7.10
2022-11-27T22:31:39.493Z,7.00
2022-11-27T22:36:34.541Z,7.10
2022-11-27T22:39:04.474Z,7.20
2022-11-27T22:41:33.907Z,7.10
2022-11-27T22:44:08.816Z,7.20
2022-11-27T22:46:36.957Z,7.20
2022-11-27T22:49:05.770Z,7.10
2022-11-27T22:51:34.488Z,7.20
2022-11-27T22:54:02.517Z,7.30
2022-11-27T22:56:29.852Z,7.30
2022-11-27T22:59:24.671Z,7.30
2022-11-27T23:04:15.483Z,7.30
2022-11-27T23:14:04.935Z,7.30
2022-11-27T23:16:31.729Z,7.40
2022-11-27T23:21:26.639Z,7.50
2022-11-27T23:23:53.378Z,7.40
2022-11-27T23:26:22.431Z,7.40
2022-11-27T23:28:51.618Z,7.90
2022-11-27T23:31:30.474Z,7.40
2022-11-27T23:33:58.935Z,7.30
2022-11-27T23:38:52.902Z,7.50
2022-11-27T23:41:24.771Z,7.50
2022-11-27T23:43:52.871Z,7.50
2022-11-27T23:46:21.485Z,7.40
2022-11-27T23:48:48.510Z,7.40
2022-11-27T23:51:18.413Z,7.40
2022-11-27T23:56:15.222Z,7.40
